Time;durP1;ratioP1;P1;durP2;ratioP2;P2;SDS_P1;SDS_P2;PMS_P1;PMS_P2;Temp;Humidity;BMP_temperature;BMP_pressure;BME280_temperature;BME280_humidity;BME280_pressure;Samples;Min_cycle;Max_cycle;Signal;HPM_P1;HPM_P2
2023/11/19 00:00:42;;;;;;;0.30;0.30;;;;;;;9.44;100.00;99308.28;5020763;28;20025;-84
2023/11/19 00:03:12;;;;;;;0.40;0.40;;;;;;;9.48;100.00;99306.03;5053303;28;20037;-84
2023/11/19 00:05:39;;;;;;;0.30;0.30;;;;;;;9.49;100.00;99302.31;5038047;28;20032;-84
2023/11/19 00:08:06;;;;;;;0.40;0.40;;;;;;;9.46;100.00;99295.47;5020754;28;20387;-84
2023/11/19 00:10:31;;;;;;;0.40;0.40;;;;;;;9.52;100.00;99301.88;5053348;28;20412;-84
2023/11/19 00:12:57;;;;;;;0.40;0.40;;;;;;;9.54;100.00;99294.47;5053231;28;20068;-84
2023/11/19 00:15:24;;;;;;;0.40;0.40;;;;;;;9.61;100.00;99298.00;5055026;28;20041;-84
2023/11/19 00:17:52;;;;;;;0.40;0.40;;;;;;;9.68;100.00;99288.09;5004604;28;20072;-84
2023/11/19 00:20:19;;;;;;;0.30;0.30;;;;;;;9.71;100.00;99283.31;5037008;28;20471;-84
2023/11/19 00:22:48;;;;;;;0.40;0.40;;;;;;;9.74;100.00;99285.59;5020515;28;20067;-83
2023/11/19 00:25:14;;;;;;;0.40;0.40;;;;;;;9.75;100.00;99274.66;5053432;28;20029;-84
2023/11/19 00:27:39;;;;;;;0.30;0.30;;;;;;;9.75;100.00;99277.34;5036651;28;20391;-84
2023/11/19 00:30:06;;;;;;;0.40;0.40;;;;;;;9.67;100.00;99262.25;5036915;28;20480;-85
2023/11/19 00:32:32;;;;;;;0.40;0.40;;;;;;;9.62;100.00;99272.78;5036127;28;20037;-83
2023/11/19 00:34:58;;;;;;;0.38;0.38;;;;;;;9.59;100.00;99272.38;5036659;28;20040;-84
2023/11/19 00:37:23;;;;;;;0.40;0.40;;;;;;;9.59;100.00;99275.06;5036247;28;20037;-84
2023/11/19 00:39:49;;;;;;;0.40;0.40;;;;;;;9.59;100.00;99269.72;5019385;28;20043;-83
2023/11/19 00:42:15;;;;;;;0.40;0.40;;;;;;;9.56;100.00;99272.81;5035151;28;20380;-84
2023/11/19 00:44:41;;;;;;;0.32;0.32;;;;;;;9.54;100.00;99264.13;5018875;28;20043;-83
2023/11/19 00:47:07;;;;;;;0.35;0.35;;;;;;;9.59;100.00;99275.06;5052272;28;20028;-84
2023/11/19 00:49:32;;;;;;;0.30;0.30;;;;;;;9.59;100.00;99267.03;5018941;28;20028;-84
2023/11/19 00:51:59;;;;;;;0.30;0.30;;;;;;;9.60;100.00;99276.72;5035487;28;20534;-83
2023/11/19 00:54:25;;;;;;;0.40;0.40;;;;;;;9.60;100.00;99269.47;5035503;28;20051;-83
2023/11/19 00:56:52;;;;;;;0.40;0.40;;;;;;;9.58;100.00;99263.53;5036542;28;20357;-84
2023/11/19 00:59:18;;;;;;;0.30;0.30;;;;;;;9.62;100.00;99267.44;5020012;28;20033;-84
2023/11/19 01:01:44;;;;;;;0.30;0.30;;;;;;;9.62;100.00;99272.78;5036350;28;20067;-84
2023/11/19 01:04:12;;;;;;;0.40;0.40;;;;;;;9.60;100.00;99266.81;5052228;28;20060;-83
2023/11/19 01:06:37;;;;;;;0.40;0.40;;;;;;;9.62;100.00;99271.97;5019672;28;20037;-84
2023/11/19 01:09:03;;;;;;;0.32;0.32;;;;;;;9.61;100.00;99257.72;5019554;28;20037;-83
2023/11/19 01:11:31;;;;;;;0.40;0.40;;;;;;;9.61;100.00;99248.88;5019736;28;20086;-84
2023/11/19 01:13:59;;;;;;;0.30;0.30;;;;;;;9.63;100.00;99246.78;5052466;28;20079;-83
2023/11/19 01:16:26;;;;;;;0.40;0.40;;;;;;;9.62;100.00;99242.44;5052050;28;20037;-85
2023/11/19 01:18:52;;;;;;;0.30;0.30;;;;;;;9.59;100.00;99240.19;5020051;28;20033;-84
2023/11/19 01:21:18;;;;;;;0.40;0.40;;;;;;;9.62;100.00;99259.38;5036231;28;20041;-84
2023/11/19 01:23:45;;;;;;;0.40;0.40;;;;;;;9.58;100.00;99239.38;5035376;28;20399;-84
2023/11/19 01:26:12;;;;;;;1.20;1.20;;;;;;;9.52;100.00;99226.75;5035956;28;20043;-84
2023/11/19 01:28:39;;;;;;;0.40;0.40;;;;;;;9.61;100.00;99248.88;5052287;28;20037;-84
2023/11/19 01:31:08;;;;;;;0.40;0.40;;;;;;;9.56;100.00;99230.69;5052317;28;20033;-85
2023/11/19 01:33:36;;;;;;;0.40;0.40;;;;;;;9.60;100.00;99237.28;5052346;28;20028;-84
2023/11/19 01:36:01;;;;;;;0.40;0.40;;;;;;;9.59;100.00;99227.59;5052223;28;20029;-84
2023/11/19 01:38:27;;;;;;;0.38;0.38;;;;;;;9.60;100.00;99231.91;5052341;28;20036;-84
2023/11/19 01:40:57;;;;;;;0.35;0.35;;;;;;;9.60;100.00;99215.81;5052256;28;20044;-84
2023/11/19 01:43:47;;;;;;;0.40;0.40;;;;;;;9.58;100.00;99215.22;5053424;28;20033;-84
2023/11/19 01:46:13;;;;;;;0.40;0.40;;;;;;;9.58;100.00;99212.53;5052028;28;20380;-84
2023/11/19 01:48:46;;;;;;;0.30;0.30;;;;;;;9.59;100.00;99211.50;5035533;28;20033;-84
2023/11/19 01:51:16;;;;;;;0.40;0.40;;;;;;;9.61;100.00;99224.72;5052311;28;20048;-84
2023/11/19 01:53:43;;;;;;;0.40;0.40;;;;;;;9.62;100.00;99219.13;5003051;28;20045;-85
2023/11/19 01:56:10;;;;;;;0.40;0.40;;;;;;;9.63;100.00;99218.09;5035772;28;20041;-84
2023/11/19 01:58:36;;;;;;;0.30;0.30;;;;;;;9.64;100.00;99216.25;5052164;28;20041;-84
2023/11/19 02:01:04;;;;;;;0.40;0.40;;;;;;;9.63;100.00;99214.56;5051737;28;20031;-84
2023/11/19 02:03:32;;;;;;;0.40;0.40;;;;;;;9.63;100.00;99214.56;5035681;28;20475;-85
2023/11/19 02:05:59;;;;;;;0.30;0.30;;;;;;;9.62;100.00;99211.06;5003005;28;20037;-86
2023/11/19 02:08:24;;;;;;;0.40;0.40;;;;;;;9.62;100.00;99211.06;5034998;28;20025;-85
2023/11/19 02:10:50;;;;;;;0.32;0.32;;;;;;;9.61;100.00;99209.44;5019033;28;20036;-85
2023/11/19 02:13:16;;;;;;;0.40;0.40;;;;;;;9.61;100.00;99203.25;5051410;28;20021;-84
2023/11/19 02:15:41;;;;;;;0.35;0.35;;;;;;;9.61;100.00;99205.94;5035315;28;20037;-84
2023/11/19 02:18:30;;;;;;;0.40;0.40;;;;;;;9.62;100.00;99196.84;5035156;28;20037;-84
2023/11/19 02:21:02;;;;;;;0.40;0.40;;;;;;;9.60;100.00;99199.72;5053022;28;20463;-84
2023/11/19 02:23:28;;;;;;;0.43;0.43;;;;;;;9.62;100.00;99200.34;5055481;28;20032;-85
2023/11/19 02:26:15;;;;;;;0.40;0.40;;;;;;;9.62;100.00;99196.84;5055385;28;20179;-84
2023/11/19 02:28:42;;;;;;;0.40;0.40;;;;;;;9.61;100.00;99196.00;5022490;28;20071;-84
2023/11/19 02:31:11;;;;;;;0.30;0.30;;;;;;;9.59;100.00;99200.75;5038823;28;20095;-85
2023/11/19 02:33:37;;;;;;;0.30;0.30;;;;;;;9.57;100.00;99188.56;5039251;28;20134;-85
2023/11/19 02:36:08;;;;;;;0.40;0.40;;;;;;;9.59;100.00;99189.19;5055586;28;20042;-85
2023/11/19 02:38:34;;;;;;;0.38;0.38;;;;;;;9.58;100.00;99190.22;5039040;28;20029;-84
2023/11/19 02:41:03;;;;;;;0.40;0.40;;;;;;;9.56;100.00;99185.06;5038969;28;20037;-84
2023/11/19 02:43:31;;;;;;;0.40;0.40;;;;;;;9.49;100.00;99184.25;5055657;28;20032;-84
2023/11/19 02:45:57;;;;;;;0.40;0.40;;;;;;;9.55;100.00;99191.50;5055371;28;20094;-84
2023/11/19 02:48:23;;;;;;;0.40;0.40;;;;;;;9.50;100.00;99177.00;5006143;28;20040;-85
2023/11/19 02:50:49;;;;;;;0.30;0.30;;;;;;;9.53;100.00;99166.72;5022295;28;20036;-84
2023/11/19 02:53:16;;;;;;;0.30;0.30;;;;;;;9.53;100.00;99166.72;5055232;28;20029;-84
2023/11/19 02:55:48;;;;;;;0.40;0.40;;;;;;;9.58;100.00;99166.06;5022350;28;20482;-84
2023/11/19 02:58:19;;;;;;;0.40;0.40;;;;;;;9.57;100.00;99161.75;5039507;28;20128;-85
2023/11/19 03:00:54;;;;;;;0.40;0.40;;;;;;;9.61;100.00;99161.13;5055081;28;20036;-84
2023/11/19 03:03:22;;;;;;;0.30;0.30;;;;;;;9.55;100.00;99147.72;5024181;28;20045;-85
2023/11/19 03:05:48;;;;;;;0.40;0.40;;;;;;;9.62;100.00;99164.63;5022104;28;20071;-84
2023/11/19 03:08:17;;;;;;;0.30;0.30;;;;;;;9.61;100.00;99157.63;5054473;28;20025;-84
2023/11/19 03:10:43;;;;;;;0.38;0.38;;;;;;;9.62;100.00;99154.72;5054740;28;20151;-85
2023/11/19 03:13:15;;;;;;;0.40;0.40;;;;;;;9.62;100.00;99143.97;5038032;28;20091;-84
2023/11/19 03:15:41;;;;;;;0.30;0.30;;;;;;;9.61;100.00;99142.34;5022078;28;20025;-84
2023/11/19 03:18:07;;;;;;;0.40;0.40;;;;;;;9.60;100.00;99156.78;5021610;28;20453;-84
2023/11/19 03:20:33;;;;;;;0.40;0.40;;;;;;;9.61;100.00;99150.41;5055361;28;20040;-84
2023/11/19 03:23:00;;;;;;;0.40;0.40;;;;;;;9.61;100.00;99150.41;5037935;28;20036;-86
2023/11/19 03:25:33;;;;;;;0.40;0.40;;;;;;;9.59;100.00;99138.22;5038074;28;20041;-85
2023/11/19 03:28:00;;;;;;;0.43;0.43;;;;;;;9.56;100.00;99144.81;5054021;28;20037;-84
2023/11/19 03:30:26;;;;;;;0.40;0.40;;;;;;;9.54;100.00;99141.53;5037675;28;20115;-84
2023/11/19 03:32:51;;;;;;;0.38;0.38;;;;;;;9.52;100.00;99132.84;5053780;28;20028;-84
2023/11/19 03:35:20;;;;;;;0.35;0.35;;;;;;;9.48;100.00;99125.44;5037739;28;20108;-85
2023/11/19 03:37:46;;;;;;;0.40;0.40;;;;;;;9.50;100.00;99124.22;5038023;28;20033;-84
2023/11/19 03:40:12;;;;;;;0.30;0.30;;;;;;;9.51;100.00;99122.34;5054255;28;20037;-86
2023/11/19 03:42:39;;;;;;;0.40;0.40;;;;;;;9.52;100.00;99119.44;5021517;28;20041;-85
2023/11/19 03:45:08;;;;;;;0.30;0.30;;;;;;;9.53;100.00;99112.22;5054067;28;20130;-85
2023/11/19 03:47:35;;;;;;;0.30;0.30;;;;;;;9.53;100.00;99107.69;5021885;28;20179;-84
2023/11/19 03:50:01;;;;;;;0.40;0.40;;;;;;;9.55;100.00;99105.63;5054066;28;20055;-85
2023/11/19 03:52:27;;;;;;;0.40;0.40;;;;;;;9.55;100.00;99102.94;5053981;28;20040;-84
2023/11/19 03:54:54;;;;;;;0.40;0.40;;;;;;;9.58;100.00;99104.34;5037201;28;20033;-85
2023/11/19 03:57:20;;;;;;;0.40;0.40;;;;;;;9.58;100.00;99091.78;5053570;28;20033;-85
2023/11/19 03:59:45;;;;;;;0.40;0.40;;;;;;;9.57;100.00;99092.81;5037287;28;20155;-85
2023/11/19 04:02:11;;;;;;;0.30;0.30;;;;;;;9.58;100.00;99082.88;5037392;28;20029;-85
2023/11/19 04:04:38;;;;;;;0.32;0.32;;;;;;;9.58;100.00;99090.94;5021042;28;20487;-84
2023/11/19 04:07:05;;;;;;;0.40;0.40;;;;;;;9.55;100.00;99080.63;5037624;28;20043;-84
2023/11/19 04:09:32;;;;;;;0.40;0.40;;;;;;;9.57;100.00;99084.75;5037158;28;20059;-84
2023/11/19 04:12:06;;;;;;;0.32;0.32;;;;;;;9.51;100.00;99058.78;5053472;28;20104;-84
2023/11/19 04:14:32;;;;;;;0.40;0.40;;;;;;;9.51;100.00;99060.63;5053788;28;20116;-84
2023/11/19 04:16:57;;;;;;;0.40;0.40;;;;;;;9.62;100.00;99074.22;5019943;28;20123;-84
2023/11/19 04:19:24;;;;;;;0.32;0.32;;;;;;;9.65;100.00;99073.78;5053456;28;20029;-86
2023/11/19 04:21:52;;;;;;;0.30;0.30;;;;;;;9.61;100.00;99059.16;5053264;28;20048;-85
2023/11/19 04:24:17;;;;;;;0.40;0.40;;;;;;;9.65;100.00;99060.38;5020401;28;20055;-87
2023/11/19 04:26:45;;;;;;;0.35;0.35;;;;;;;9.69;100.00;99080.38;5020275;28;20459;-85
2023/11/19 04:29:14;;;;;;;0.30;0.30;;;;;;;9.68;100.00;99072.53;5053470;28;20037;-84
2023/11/19 04:31:41;;;;;;;0.40;0.40;;;;;;;9.67;100.00;99069.03;5036454;28;20044;-84
2023/11/19 04:34:07;;;;;;;0.30;0.30;;;;;;;9.66;100.00;99072.75;5053146;28;20104;-86
2023/11/19 04:36:33;;;;;;;0.30;0.30;;;;;;;9.65;100.00;99063.06;5052739;28;20460;-85
2023/11/19 04:39:02;;;;;;;0.40;0.40;;;;;;;9.71;100.00;99071.28;5036210;28;20037;-84
2023/11/19 04:41:28;;;;;;;0.38;0.38;;;;;;;9.78;100.00;99056.00;5020087;28;20531;-84
2023/11/19 04:43:54;;;;;;;0.40;0.40;;;;;;;9.82;100.00;99062.59;5035812;28;20061;-84
2023/11/19 04:46:19;;;;;;;0.40;0.40;;;;;;;9.80;100.00;99062.81;5003775;28;20076;-83
2023/11/19 04:48:45;;;;;;;0.30;0.30;;;;;;;9.84;100.00;99055.13;5036385;28;20067;-84
2023/11/19 04:51:11;;;;;;;0.40;0.40;;;;;;;9.85;100.00;99068.34;5035947;28;20108;-84
2023/11/19 04:53:36;;;;;;;0.30;0.30;;;;;;;9.84;100.00;99060.50;5035891;28;20069;-84
2023/11/19 04:56:13;;;;;;;0.30;0.30;;;;;;;9.86;100.00;99061.94;5052481;28;20029;-84
2023/11/19 04:58:39;;;;;;;0.40;0.40;;;;;;;9.91;100.00;99072.06;5035919;28;20380;-84
2023/11/19 05:01:04;;;;;;;0.40;0.40;;;;;;;9.94;100.00;99070.81;5003495;28;20094;-84
2023/11/19 05:03:31;;;;;;;0.30;0.30;;;;;;;9.89;100.00;99052.63;5019766;28;20051;-84
2023/11/19 05:05:57;;;;;;;0.40;0.40;;;;;;;9.97;100.00;99063.13;5036020;28;20025;-84
2023/11/19 05:08:22;;;;;;;0.30;0.30;;;;;;;9.98;100.00;99055.94;5036058;28;20128;-85
2023/11/19 05:10:48;;;;;;;0.40;0.40;;;;;;;10.02;100.00;99063.31;5035605;28;20036;-84
2023/11/19 05:13:17;;;;;;;0.30;0.30;;;;;;;10.03;100.00;99069.50;5052001;28;20539;-84
2023/11/19 05:15:43;;;;;;;0.38;0.38;;;;;;;10.03;100.00;99067.69;5019618;28;20368;-84
2023/11/19 05:18:11;;;;;;;0.40;0.40;;;;;;;10.03;100.00;99064.13;5035725;28;20474;-84
2023/11/19 05:20:36;;;;;;;0.30;0.30;;;;;;;10.09;100.00;99069.50;5019517;28;20056;-84
2023/11/19 05:23:02;;;;;;;0.30;0.30;;;;;;;10.11;100.00;99067.44;5019295;28;20434;-84
2023/11/19 05:25:27;;;;;;;0.40;0.40;;;;;;;10.15;100.00;99061.63;5035866;28;20029;-84
2023/11/19 05:27:53;;;;;;;0.38;0.38;;;;;;;10.18;100.00;99069.25;5052522;28;20037;-85
2023/11/19 05:30:24;;;;;;;0.38;0.38;;;;;;;10.20;100.00;99068.00;5019148;28;20126;-85
2023/11/19 05:32:49;;;;;;;0.40;0.40;;;;;;;10.22;100.00;99070.47;5051990;28;20155;-86
2023/11/19 05:35:15;;;;;;;0.40;0.40;;;;;;;10.19;100.00;99052.94;5019353;28;20075;-87
2023/11/19 05:37:41;;;;;;;0.30;0.30;;;;;;;10.26;100.00;99069.81;5035981;28;20459;-86
2023/11/19 05:40:14;;;;;;;0.40;0.40;;;;;;;10.29;100.00;99064.06;5035770;28;20029;-85
2023/11/19 05:42:40;;;;;;;0.40;0.40;;;;;;;10.36;100.00;99071.25;5052043;28;20033;-85
2023/11/19 05:45:07;;;;;;;0.38;0.38;;;;;;;10.40;100.00;99072.44;5019253;28;20398;-86
2023/11/19 05:47:33;;;;;;;0.30;0.30;;;;;;;10.44;100.00;99065.63;5051903;28;20040;-86
2023/11/19 05:49:59;;;;;;;0.40;0.40;;;;;;;10.44;100.00;99065.63;5035485;28;20029;-85
2023/11/19 05:52:24;;;;;;;0.40;0.40;;;;;;;10.49;100.00;99074.69;5035601;28;20044;-83
2023/11/19 05:54:52;;;;;;;0.32;0.32;;;;;;;10.54;100.00;99071.34;5020359;28;20025;-85
2023/11/19 05:57:23;;;;;;;0.32;0.32;;;;;;;10.62;100.00;99075.63;5023455;28;20123;-84
2023/11/19 05:59:49;;;;;;;0.30;0.30;;;;;;;10.66;100.00;99076.84;5040329;28;20040;-84
2023/11/19 06:02:15;;;;;;;0.30;0.30;;;;;;;10.67;100.00;99081.19;5023560;28;20446;-85
2023/11/19 06:04:43;;;;;;;0.30;0.30;;;;;;;10.70;100.00;99086.94;5057573;28;20132;-85
2023/11/19 06:07:09;;;;;;;0.40;0.40;;;;;;;10.75;100.00;99094.38;5040248;28;20045;-85
2023/11/19 06:09:35;;;;;;;0.30;0.30;;;;;;;10.78;100.00;99099.31;5023088;28;20043;-85
2023/11/19 06:12:02;;;;;;;0.50;0.50;;;;;;;10.78;100.00;99102.00;5022885;28;20460;-85
2023/11/19 06:14:27;;;;;;;0.40;0.40;;;;;;;10.76;100.00;99091.44;5055586;28;20033;-85
2023/11/19 06:16:53;;;;;;;0.40;0.40;;;;;;;10.83;100.00;99101.34;5056144;28;20074;-85
2023/11/19 06:19:19;;;;;;;0.30;0.30;;;;;;;10.81;100.00;99095.34;5039469;28;20188;-84
2023/11/19 06:21:44;;;;;;;0.30;0.30;;;;;;;10.83;100.00;99099.47;5039228;28;20460;-85
2023/11/19 06:24:10;;;;;;;0.30;0.30;;;;;;;10.84;100.00;99101.09;5039078;28;20037;-85
2023/11/19 06:26:35;;;;;;;0.40;0.40;;;;;;;10.87;100.00;99102.53;5038746;28;20037;-85
2023/11/19 06:29:01;;;;;;;0.30;0.30;;;;;;;10.82;100.00;99102.38;5038898;28;20029;-86
2023/11/19 06:31:27;;;;;;;0.43;0.43;;;;;;;10.87;100.00;99103.34;5038840;28;20044;-85
2023/11/19 06:33:52;;;;;;;0.40;0.40;;;;;;;10.90;100.00;99111.00;5022704;28;20033;-85
2023/11/19 06:36:18;;;;;;;0.40;0.40;;;;;;;10.90;100.00;99118.22;5056407;28;20029;-85
2023/11/19 06:38:44;;;;;;;0.40;0.40;;;;;;;10.89;100.00;99122.78;5039035;28;20578;-85
2023/11/19 06:41:12;;;;;;;0.40;0.40;;;;;;;10.87;100.00;99108.72;5054648;28;20033;-86
2023/11/19 06:43:37;;;;;;;0.40;0.40;;;;;;;10.88;100.00;99117.66;5038713;28;20068;-85
2023/11/19 06:46:05;;;;;;;0.30;0.30;;;;;;;10.87;100.00;99118.66;5022663;28;20071;-86
2023/11/19 06:48:34;;;;;;;0.30;0.30;;;;;;;10.86;100.00;99139.38;5039137;28;20464;-86
2023/11/19 06:51:00;;;;;;;0.30;0.30;;;;;;;10.85;100.00;99136.88;5022342;28;20036;-85
2023/11/19 06:53:27;;;;;;;0.40;0.40;;;;;;;10.84;100.00;99154.88;5038578;28;20383;-85
2023/11/19 06:55:54;;;;;;;0.30;0.30;;;;;;;10.85;100.00;99148.47;5022250;28;20056;-85
2023/11/19 06:58:19;;;;;;;0.30;0.30;;;;;;;10.79;100.00;99146.63;5038543;28;20029;-85
2023/11/19 07:00:47;;;;;;;0.32;0.32;;;;;;;10.81;100.00;99166.06;5022123;28;20040;-86
2023/11/19 07:03:14;;;;;;;0.30;0.30;;;;;;;10.79;100.00;99155.53;5055130;28;20460;-85
2023/11/19 07:05:40;;;;;;;0.40;0.40;;;;;;;10.79;100.00;99162.78;5054823;28;20516;-86
2023/11/19 07:08:08;;;;;;;0.40;0.40;;;;;;;10.76;100.00;99163.22;5055613;28;20044;-85
2023/11/19 07:10:34;;;;;;;0.30;0.30;;;;;;;10.75;100.00;99175.84;5021901;28;20029;-86
2023/11/19 07:13:00;;;;;;;0.30;0.30;;;;;;;10.76;100.00;99171.28;5054072;28;20033;-86
2023/11/19 07:15:28;;;;;;;0.30;0.30;;;;;;;10.76;100.00;99172.09;5037896;28;20053;-85
2023/11/19 07:17:54;;;;;;;0.30;0.30;;;;;;;10.75;100.00;99191.16;5054411;28;20100;-85
2023/11/19 07:20:20;;;;;;;0.40;0.40;;;;;;;10.76;100.00;99182.84;5054636;28;20029;-85
2023/11/19 07:22:45;;;;;;;0.40;0.40;;;;;;;10.76;100.00;99203.53;5021705;28;20489;-85
2023/11/19 07:25:14;;;;;;;0.32;0.32;;;;;;;10.75;100.00;99201.91;5054562;28;20061;-85
2023/11/19 07:27:40;;;;;;;0.30;0.30;;;;;;;10.75;100.00;99216.16;5021443;28;20043;-85
2023/11/19 07:30:09;;;;;;;0.32;0.32;;;;;;;10.75;100.00;99215.34;5055767;28;20028;-85
2023/11/19 07:32:35;;;;;;;0.40;0.40;;;;;;;10.73;100.00;99222.78;5037889;28;20109;-85
2023/11/19 07:35:00;;;;;;;0.30;0.30;;;;;;;10.68;100.00;99225.28;5054430;28;20064;-85
2023/11/19 07:37:26;;;;;;;0.35;0.35;;;;;;;10.69;100.00;99233.16;5054025;28;20028;-85
2023/11/19 07:39:51;;;;;;;0.30;0.30;;;;;;;10.68;100.00;99244.94;5037360;28;20029;-85
2023/11/19 07:42:17;;;;;;;0.40;0.40;;;;;;;10.68;100.00;99236.03;5037559;28;20124;-85
2023/11/19 07:44:46;;;;;;;0.30;0.30;;;;;;;10.67;100.00;99239.78;5053572;28;20399;-86
2023/11/19 07:47:12;;;;;;;0.30;0.30;;;;;;;10.66;100.00;99243.50;5053601;28;20043;-86
2023/11/19 07:49:38;;;;;;;0.40;0.40;;;;;;;10.66;100.00;99247.00;5053806;28;20033;-85
2023/11/19 07:52:04;;;;;;;0.30;0.30;;;;;;;10.68;100.00;99254.88;5053957;28;20025;-85
2023/11/19 07:54:29;;;;;;;0.30;0.30;;;;;;;10.68;100.00;99257.56;5036999;28;20060;-85
2023/11/19 07:56:55;;;;;;;0.30;0.30;;;;;;;10.68;100.00;99234.19;5037190;28;20463;-85
2023/11/19 07:59:21;;;;;;;0.30;0.30;;;;;;;10.70;100.00;99252.78;5021028;28;20029;-85
2023/11/19 08:01:47;;;;;;;0.32;0.32;;;;;;;10.71;100.00;99267.88;5053740;28;20035;-85
2023/11/19 08:04:13;;;;;;;0.40;0.40;;;;;;;10.68;100.00;99269.13;5037569;28;20047;-85
2023/11/19 08:06:42;;;;;;;0.35;0.35;;;;;;;10.69;100.00;99278.84;5037571;28;20029;-85
2023/11/19 08:09:13;;;;;;;0.30;0.30;;;;;;;10.63;100.00;99271.63;5020572;28;20120;-85
2023/11/19 08:11:40;;;;;;;0.30;0.30;;;;;;;10.70;100.00;99288.56;5037801;28;20498;-85
2023/11/19 08:14:06;;;;;;;0.40;0.40;;;;;;;10.70;100.00;99285.88;5053554;28;20063;-85
2023/11/19 08:16:31;;;;;;;0.40;0.40;;;;;;;10.69;100.00;99297.66;5054778;28;20029;-85
2023/11/19 08:18:58;;;;;;;0.30;0.30;;;;;;;10.73;100.00;99298.88;5019812;28;20029;-85
2023/11/19 08:21:27;;;;;;;0.30;0.30;;;;;;;10.65;100.00;99293.75;5053444;28;20033;-85
2023/11/19 08:23:52;;;;;;;0.40;0.40;;;;;;;10.68;100.00;99297.88;5037393;28;20427;-85
2023/11/19 08:26:18;;;;;;;0.32;0.32;;;;;;;10.71;100.00;99313.56;5053868;28;20140;-85
2023/11/19 08:28:43;;;;;;;0.30;0.30;;;;;;;10.69;100.00;99318.31;5053095;28;20040;-85
2023/11/19 08:31:09;;;;;;;0.30;0.30;;;;;;;10.66;100.00;99333.00;5019883;28;20529;-85
2023/11/19 08:33:35;;;;;;;0.40;0.40;;;;;;;10.68;100.00;99346.25;5053128;28;20033;-85
2023/11/19 08:36:01;;;;;;;1.02;0.50;;;;;;;10.67;100.00;99339.25;5036888;28;20369;-85
2023/11/19 08:38:26;;;;;;;0.40;0.40;;;;;;;10.64;100.00;99340.50;5036570;28;20044;-86
2023/11/19 08:40:59;;;;;;;0.40;0.40;;;;;;;10.62;100.00;99344.41;5018738;28;20044;-85
2023/11/19 08:43:25;;;;;;;0.40;0.40;;;;;;;10.60;100.00;99357.25;5035572;28;20537;-86
2023/11/19 08:45:51;;;;;;;0.43;0.43;;;;;;;10.54;100.00;99348.97;5017831;28;20033;-86
2023/11/19 08:48:16;;;;;;;0.40;0.40;;;;;;;10.57;100.00;99359.31;5034129;28;20090;-86
2023/11/19 08:50:42;;;;;;;0.40;0.40;;;;;;;10.55;100.00;99353.31;5034218;28;20025;-86
2023/11/19 08:53:13;;;;;;;0.30;0.30;;;;;;;10.55;100.00;99361.38;5034362;28;20099;-85
2023/11/19 08:55:42;;;;;;;0.43;0.43;;;;;;;10.54;100.00;99370.47;5018682;28;20497;-85
2023/11/19 08:58:07;;;;;;;0.40;0.40;;;;;;;10.53;100.00;99386.81;5021290;28;20028;-85
2023/11/19 09:00:36;;;;;;;0.40;0.40;;;;;;;10.51;100.00;99392.41;5074387;28;20040;-86
2023/11/19 09:03:01;;;;;;;0.63;0.57;;;;;;;10.52;100.00;99395.91;5040742;28;20037;-85
2023/11/19 09:05:27;;;;;;;0.40;0.40;;;;;;;10.51;100.00;99405.03;5035697;28;20117;-85
2023/11/19 09:07:53;;;;;;;0.40;0.40;;;;;;;10.52;100.00;99406.66;5053767;28;20032;-85
2023/11/19 09:10:18;;;;;;;0.40;0.40;;;;;;;10.53;100.00;99401.09;5035706;28;20139;-85
2023/11/19 09:12:44;;;;;;;0.40;0.40;;;;;;;10.54;100.00;99405.41;5053466;28;20414;-85
2023/11/19 09:15:13;;;;;;;0.40;0.40;;;;;;;10.56;100.00;99408.72;5019391;28;20071;-85
2023/11/19 09:17:38;;;;;;;0.40;0.40;;;;;;;10.55;100.00;99409.75;5019842;28;20036;-86
2023/11/19 09:20:04;;;;;;;0.40;0.40;;;;;;;10.52;100.00;99420.91;5052412;28;20028;-86
2023/11/19 09:22:30;;;;;;;0.32;0.32;;;;;;;10.52;100.00;99423.59;5052028;28;20458;-85
2023/11/19 09:24:56;;;;;;;0.43;0.43;;;;;;;10.49;100.00;99420.53;5018897;28;20482;-85
2023/11/19 09:27:21;;;;;;;0.40;0.40;;;;;;;10.44;100.00;99423.00;5051785;28;20387;-85
2023/11/19 09:29:48;;;;;;;0.40;0.40;;;;;;;10.49;100.00;99439.34;5051703;28;20025;-85
2023/11/19 09:32:14;;;;;;;0.30;0.30;;;;;;;10.58;100.00;99448.81;5051740;28;20029;-85
2023/11/19 09:34:40;;;;;;;0.40;0.40;;;;;;;10.60;100.00;99462.06;5018656;28;20040;-85
2023/11/19 09:37:05;;;;;;;2.05;0.75;;;;;;;10.55;100.00;99451.94;5018928;28;20483;-85
2023/11/19 09:39:31;;;;;;;1.40;0.60;;;;;;;10.66;100.00;99455.84;5051800;28;20041;-85
2023/11/19 09:41:59;;;;;;;0.70;0.70;;;;;;;10.73;100.00;99470.13;5051692;28;20029;-85
2023/11/19 09:44:25;;;;;;;3.92;1.10;;;;;;;10.75;100.00;99470.75;5019106;28;20519;-85
2023/11/19 09:46:51;;;;;;;1.08;0.90;;;;;;;10.80;100.00;99487.09;5051655;28;20574;-85
2023/11/19 09:49:22;;;;;;;0.40;0.40;;;;;;;10.83;100.00;99501.97;5035031;28;20033;-85
2023/11/19 09:51:48;;;;;;;0.40;0.40;;;;;;;10.77;100.00;99484.81;5052526;28;20029;-85
2023/11/19 09:54:13;;;;;;;0.50;0.50;;;;;;;10.77;100.00;99495.56;5018751;28;20044;-84
2023/11/19 09:56:39;;;;;;;2.15;0.60;;;;;;;10.81;100.00;99501.34;5034953;28;20147;-85
2023/11/19 09:59:05;;;;;;;1.25;0.98;;;;;;;10.84;100.00;99491.00;5035228;28;20108;-85
2023/11/19 10:01:31;;;;;;;4.10;1.42;;;;;;;10.82;100.00;99511.06;5035502;28;20124;-85
2023/11/19 10:03:57;;;;;;;0.77;0.57;;;;;;;10.82;100.00;99525.31;5035292;28;20037;-85
2023/11/19 10:06:26;;;;;;;0.57;0.57;;;;;;;10.74;100.00;99525.53;5035108;28;20036;-84
2023/11/19 10:08:52;;;;;;;0.77;0.60;;;;;;;10.73;100.00;99540.84;5051360;28;20040;-86
2023/11/19 10:11:17;;;;;;;0.40;0.40;;;;;;;10.66;100.00;99542.69;5051880;28;20033;-86
2023/11/19 10:13:44;;;;;;;5.32;1.13;;;;;;;10.66;100.00;99542.69;5034939;28;20043;-85
2023/11/19 10:16:12;;;;;;;1.88;0.80;;;;;;;10.68;100.00;99548.69;5035782;28;20087;-84
2023/11/19 10:18:45;;;;;;;1.77;1.10;;;;;;;10.68;100.00;99566.69;5019208;28;20541;-84
2023/11/19 10:21:16;;;;;;;11.95;1.10;;;;;;;10.77;100.00;99562.78;5019306;28;20522;-85
2023/11/19 10:24:02;;;;;;;1.95;1.10;;;;;;;10.96;100.00;99570.00;5035559;28;20028;-85
2023/11/19 10:26:28;;;;;;;2.55;1.10;;;;;;;11.12;100.00;99581.41;5034561;28;20037;-85
2023/11/19 10:28:58;;;;;;;0.47;0.47;;;;;;;11.05;100.00;99559.88;5035729;28;20045;-85
2023/11/19 10:31:27;;;;;;;3.20;1.02;;;;;;;11.19;100.00;99585.75;5051415;28;20029;-84
2023/11/19 10:33:53;;;;;;;6.72;1.25;;;;;;;11.28;100.00;99598.97;5018592;28;20021;-84
2023/11/19 10:36:23;;;;;;;0.95;0.68;;;;;;;11.19;100.00;99603.72;5035027;28;20472;-84
2023/11/19 10:38:56;;;;;;;0.80;0.63;;;;;;;11.13;100.00;99615.31;5051732;28;20076;-88
2023/11/19 10:41:32;;;;;;;2.47;1.02;;;;;;;11.06;100.00;99618.03;5019138;28;20067;-87
2023/11/19 10:43:58;;;;;;;0.40;0.40;;;;;;;10.76;100.00;99618.41;5055411;28;20379;-87
2023/11/19 10:46:36;;;;;;;0.35;0.35;;;;;;;10.86;100.00;99652.97;5025302;28;20029;-86
2023/11/19 10:49:02;;;;;;;0.30;0.30;;;;;;;10.65;100.00;99632.44;5051694;28;20052;-87
2023/11/19 10:51:29;;;;;;;0.40;0.40;;;;;;;10.72;100.00;99644.06;5047642;28;20025;-88
2023/11/19 10:54:02;;;;;;;0.40;0.40;;;;;;;10.90;100.00;99654.22;5040433;28;20028;-89
2023/11/19 10:56:30;;;;;;;0.40;0.40;;;;;;;10.78;100.00;99634.34;5039679;28;20087;-88
2023/11/19 10:58:59;;;;;;;0.40;0.40;;;;;;;10.76;100.00;99653.34;5038833;28;20294;-88
2023/11/19 11:01:30;;;;;;;0.40;0.40;;;;;;;10.86;100.00;99658.34;5038680;28;20029;-87
2023/11/19 11:03:58;;;;;;;0.90;0.90;;;;;;;11.03;100.00;99656.06;5053908;28;20041;-88
2023/11/19 11:06:24;;;;;;;0.60;0.60;;;;;;;11.11;100.00;99666.63;5053374;28;20029;-88
2023/11/19 11:08:51;;;;;;;1.17;0.95;;;;;;;11.23;100.00;99678.44;5020636;28;20083;-88
2023/11/19 11:11:17;;;;;;;1.40;0.88;;;;;;;11.46;100.00;99682.59;5020605;28;20033;-87
2023/11/19 11:13:44;;;;;;;3.75;1.05;;;;;;;11.73;100.00;99678.00;5053410;28;20112;-87
2023/11/19 11:16:10;;;;;;;2.20;1.25;;;;;;;12.07;100.00;99689.56;5053157;28;20498;-89
2023/11/19 11:18:37;;;;;;;1.55;1.00;;;;;;;12.03;100.00;99670.28;5054348;28;20044;-88
2023/11/19 11:21:11;;;;;;;4.10;1.55;;;;;;;11.82;100.00;99682.13;5056372;28;20025;-88
2023/11/19 11:24:01;;;;;;;5.00;1.45;;;;;;;11.58;100.00;99682.78;5039645;28;20068;-89
2023/11/19 11:26:52;;;;;;;2.85;0.60;;;;;;;11.38;100.00;99691.72;5054591;28;20066;-90
2023/11/19 11:29:30;;;;;;;3.63;0.88;;;;;;;11.56;100.00;99690.22;5056527;28;20044;-87